Time;durP1;ratioP1;P1;durP2;ratioP2;P2;SDS_P1;SDS_P2;PMS_P1;PMS_P2;Temp;Humidity;BMP_temperature;BMP_pressure;BME280_temperature;BME280_humidity;BME280_pressure;Samples;Min_cycle;Max_cycle;Signal;HPM_P1;HPM_P2
2023/01/10 00:01:44;;;;;;;1.00;0.90;;;6.30;1.00;;;;;;5110736;27;20989;-76
2023/01/10 00:04:14;;;;;;;1.50;1.40;;;6.40;1.00;;;;;;5113066;27;20465;-75
2023/01/10 00:06:42;;;;;;;1.30;1.20;;;6.40;37.20;;;;;;5110663;27;20468;-73
2023/01/10 00:09:11;;;;;;;1.00;1.00;;;6.40;99.90;;;;;;5097484;27;20449;-73
2023/01/10 00:14:27;;;;;;;1.10;1.00;;;6.40;26.30;;;;;;5109824;27;20515;-73
2023/01/10 00:16:55;;;;;;;1.23;1.13;;;6.50;99.90;;;;;;5110677;27;20473;-74
2023/01/10 00:19:25;;;;;;;1.03;0.93;;;6.30;1.00;;;;;;5104602;27;20892;-77
2023/01/10 00:21:53;;;;;;;1.00;1.00;;;6.50;1.00;;;;;;5108376;27;20455;-73
2023/01/10 00:24:22;;;;;;;1.00;1.00;;;6.50;1.00;;;;;;5108776;27;20461;-77
2023/01/10 00:26:51;;;;;;;1.97;1.00;;;6.30;1.00;;;;;;5109822;27;20469;-76
2023/01/10 00:29:20;;;;;;;0.90;0.90;;;6.40;99.90;;;;;;5111699;27;20452;-75
2023/01/10 00:31:48;;;;;;;0.90;0.90;;;6.50;1.00;;;;;;5108231;27;20453;-74
2023/01/10 00:34:17;;;;;;;1.10;1.10;;;6.40;1.00;;;;;;5089812;28;20619;-74
2023/01/10 00:36:47;;;;;;;0.90;0.90;;;6.50;99.90;;;;;;5105413;27;20498;-73
2023/01/10 00:39:18;;;;;;;1.00;1.00;;;6.40;1.00;;;;;;5105413;27;20462;-73
2023/01/10 00:44:31;;;;;;;1.67;1.13;;;6.50;1.00;;;;;;5101659;27;20544;-76
2023/01/10 00:46:59;;;;;;;0.90;0.90;;;6.40;1.00;;;;;;5105155;27;20472;-78
2023/01/10 00:49:28;;;;;;;0.90;0.90;;;6.40;1.00;;;;;;5108120;27;20548;-77
2023/01/10 00:51:58;;;;;;;1.20;1.10;;;6.30;1.00;;;;;;5103534;27;20459;-74
2023/01/10 00:54:26;;;;;;;2.50;1.00;;;6.30;1.00;;;;;;5106075;27;21023;-74
2023/01/10 00:56:54;;;;;;;1.30;1.20;;;6.30;1.00;;;;;;5109502;27;20458;-74
2023/01/10 00:59:23;;;;;;;1.43;1.27;;;6.20;1.00;;;;;;5109916;27;20496;-74
2023/01/10 01:01:51;;;;;;;1.00;1.00;;;6.40;1.00;;;;;;5114166;27;20456;-76
2023/01/10 01:04:20;;;;;;;1.40;1.30;;;6.40;99.90;;;;;;5114181;27;20482;-76
2023/01/10 01:06:49;;;;;;;1.00;1.00;;;6.30;1.00;;;;;;5106654;27;20499;-75
2023/01/10 01:09:19;;;;;;;1.07;1.07;;;6.30;1.00;;;;;;5107742;27;20467;-74
2023/01/10 01:11:48;;;;;;;1.10;1.10;;;6.40;1.00;;;;;;5100126;27;20826;-74
2023/01/10 01:14:16;;;;;;;2.13;1.10;;;6.40;1.00;;;;;;5082911;27;20454;-76
2023/01/10 01:16:44;;;;;;;1.53;1.17;;;6.20;99.90;;;;;;5113247;27;20465;-79
2023/01/10 01:19:12;;;;;;;0.90;0.90;;;6.40;1.00;;;;;;5091793;28;20459;-77
2023/01/10 01:21:40;;;;;;;1.10;1.10;;;6.30;1.00;;;;;;5109807;27;20877;-76
2023/01/10 01:24:09;;;;;;;0.90;0.90;;;6.30;1.00;;;;;;5112942;27;20457;-78
2023/01/10 01:26:41;;;;;;;0.90;0.90;;;6.40;1.00;;;;;;5106667;27;20480;-73
2023/01/10 01:29:09;;;;;;;1.10;1.10;;;6.40;99.90;;;;;;5109860;27;20469;-74
2023/01/10 01:31:37;;;;;;;1.03;0.90;;;6.30;99.90;;;;;;5108685;27;20949;-74
2023/01/10 01:34:06;;;;;;;1.10;1.10;;;6.30;7.80;;;;;;5112466;27;20951;-73
2023/01/10 01:36:34;;;;;;;0.93;0.93;;;6.40;99.90;;;;;;5108093;28;20860;-73
2023/01/10 01:39:02;;;;;;;0.90;0.90;;;6.30;99.90;;;;;;5115020;28;20468;-74
2023/01/10 01:44:19;;;;;;;1.00;1.00;;;6.20;72.30;;;;;;5107870;28;20474;-74
2023/01/10 01:46:54;;;;;;;0.97;0.90;;;6.00;1.00;;;;;;5109790;28;20480;-74
2023/01/10 01:49:24;;;;;;;0.90;0.90;;;6.00;24.70;;;;;;5101461;28;20566;-74
2023/01/10 01:51:58;;;;;;;0.90;0.90;;;6.30;99.90;;;;;;5112451;28;20444;-74
2023/01/10 01:54:27;;;;;;;0.90;0.90;;;6.20;60.10;;;;;;5113175;28;20468;-74
2023/01/10 01:57:03;;;;;;;0.90;0.90;;;6.40;99.90;;;;;;5109088;28;21147;-74
2023/01/10 01:59:36;;;;;;;0.90;0.90;;;6.20;1.00;;;;;;5110605;28;22078;-74
2023/01/10 02:02:08;;;;;;;0.90;0.90;;;6.10;1.00;;;;;;5111821;28;20977;-74
2023/01/10 02:04:42;;;;;;;0.90;0.90;;;6.20;1.00;;;;;;5109125;28;20442;-77
2023/01/10 02:07:11;;;;;;;1.27;0.90;;;6.10;99.90;;;;;;5081517;28;20827;-74
2023/01/10 02:09:43;;;;;;;1.23;1.00;;;6.10;99.90;;;;;;5108153;28;20453;-74
2023/01/10 02:12:12;;;;;;;1.00;1.00;;;6.10;99.90;;;;;;5109547;28;20862;-75
2023/01/10 02:14:42;;;;;;;1.27;0.80;;;6.00;1.00;;;;;;5108893;28;20538;-77
2023/01/10 02:17:11;;;;;;;0.90;0.90;;;6.00;1.00;;;;;;5110775;28;20477;-75
2023/01/10 02:19:50;;;;;;;1.37;0.90;;;6.00;1.00;;;;;;5108783;28;20571;-75
2023/01/10 02:22:53;;;;;;;0.90;0.90;;;6.00;46.70;;;;;;5110917;28;20460;-75
2023/01/10 02:25:59;;;;;;;0.90;0.90;;;5.90;1.00;;;;;;5104678;28;21376;-74
2023/01/10 02:28:52;;;;;;;0.80;0.80;;;6.00;1.00;;;;;;5112404;28;20933;-77
2023/01/10 02:31:39;;;;;;;2.00;1.00;;;5.90;1.00;;;;;;5113515;28;20456;-74
2023/01/10 02:34:17;;;;;;;4.17;0.90;;;6.00;1.00;;;;;;5109428;28;20453;-74
2023/01/10 02:36:53;;;;;;;0.90;0.90;;;6.00;99.90;;;;;;5109019;28;20967;-75
2023/01/10 02:39:28;;;;;;;1.00;1.00;;;6.20;1.00;;;;;;5116390;28;20533;-76
2023/01/10 02:42:02;;;;;;;0.90;0.90;;;6.10;1.00;;;;;;5112901;28;20864;-75
2023/01/10 02:44:36;;;;;;;2.13;1.00;;;6.00;1.00;;;;;;5103016;27;20453;-76
2023/01/10 02:47:07;;;;;;;0.83;0.83;;;6.10;1.00;;;;;;5102620;27;20476;-77
2023/01/10 02:49:43;;;;;;;2.93;1.87;;;6.10;1.00;;;;;;5085154;28;20987;-78
2023/01/10 02:52:13;;;;;;;1.47;1.37;;;6.00;1.00;;;;;;5104629;27;20488;-75
2023/01/10 02:54:42;;;;;;;0.90;0.90;;;6.10;1.00;;;;;;5108664;27;20453;-74
2023/01/10 02:57:33;;;;;;;1.10;0.90;;;6.10;1.00;;;;;;5111815;27;20814;-74
2023/01/10 03:00:20;;;;;;;1.10;0.90;;;6.20;99.90;;;;;;5104445;27;20457;-76
2023/01/10 03:03:00;;;;;;;0.93;0.93;;;6.10;99.90;;;;;;5102217;27;20536;-78
2023/01/10 03:05:52;;;;;;;0.97;0.97;;;6.20;1.00;;;;;;5107835;27;20548;-76
2023/01/10 03:08:30;;;;;;;2.03;1.00;;;6.10;99.90;;;;;;5108848;27;21021;-74
2023/01/10 03:11:00;;;;;;;2.40;1.00;;;6.00;99.90;;;;;;5113387;27;20469;-74
2023/01/10 03:13:35;;;;;;;1.30;1.20;;;6.10;1.00;;;;;;5108968;27;20452;-74
2023/01/10 03:16:07;;;;;;;1.20;1.10;;;6.20;1.00;;;;;;5110183;27;20979;-75
2023/01/10 03:18:42;;;;;;;2.23;1.33;;;6.20;44.80;;;;;;5111208;27;20438;-76
2023/01/10 03:21:12;;;;;;;1.20;1.10;;;6.20;99.90;;;;;;5107081;27;20437;-74
2023/01/10 03:23:41;;;;;;;1.37;1.27;;;6.20;99.90;;;;;;5112103;27;20449;-74
2023/01/10 03:26:11;;;;;;;1.50;1.40;;;6.10;1.00;;;;;;5108561;27;20464;-76
2023/01/10 03:28:47;;;;;;;1.90;1.37;;;6.20;1.00;;;;;;5111151;27;20953;-75
2023/01/10 03:31:18;;;;;;;1.40;1.30;;;6.10;1.00;;;;;;5109772;27;20488;-78
2023/01/10 03:33:48;;;;;;;1.40;1.30;;;6.20;23.40;;;;;;5111708;27;20468;-73
2023/01/10 03:36:29;;;;;;;1.20;1.20;;;6.20;99.90;;;;;;5104995;27;21136;-76
2023/01/10 03:39:05;;;;;;;1.43;1.33;;;6.20;99.90;;;;;;5111842;27;20470;-75
2023/01/10 03:41:38;;;;;;;3.73;1.50;;;6.10;99.90;;;;;;5108091;27;21077;-73
2023/01/10 03:47:07;;;;;;;1.00;1.00;;;6.10;77.80;;;;;;5103601;27;20493;-74
2023/01/10 03:49:37;;;;;;;2.90;1.40;;;6.20;99.90;;;;;;5110712;27;20963;-78
2023/01/10 03:52:11;;;;;;;0.90;0.90;;;6.20;99.90;;;;;;5109063;27;20457;-73
2023/01/10 03:54:39;;;;;;;1.20;1.10;;;6.20;99.90;;;;;;5103458;27;20470;-74
2023/01/10 03:57:07;;;;;;;1.37;1.07;;;6.20;19.50;;;;;;5112335;27;20484;-74
2023/01/10 03:59:35;;;;;;;2.80;1.13;;;6.20;99.90;;;;;;5115901;27;20502;-75
2023/01/10 04:02:03;;;;;;;1.13;0.90;;;6.10;1.00;;;;;;5117602;27;20515;-78
2023/01/10 04:04:32;;;;;;;1.57;0.93;;;6.00;99.90;;;;;;5112797;27;20499;-75
2023/01/10 04:07:00;;;;;;;3.77;1.10;;;6.00;99.90;;;;;;5112301;27;20517;-74
2023/01/10 04:09:29;;;;;;;1.20;1.10;;;6.00;99.90;;;;;;5103423;27;20450;-77
2023/01/10 04:11:58;;;;;;;1.17;1.10;;;6.00;1.00;;;;;;5104983;27;20578;-75
2023/01/10 04:14:26;;;;;;;1.00;1.00;;;6.00;1.00;;;;;;5101909;27;20455;-77
2023/01/10 04:16:54;;;;;;;1.00;1.00;;;6.00;1.00;;;;;;5108072;27;21048;-77
2023/01/10 04:19:22;;;;;;;1.10;0.90;;;6.10;99.90;;;;;;5108843;27;20459;-76
2023/01/10 04:21:50;;;;;;;1.20;1.10;;;6.10;99.90;;;;;;5112026;27;20487;-77
2023/01/10 04:24:18;;;;;;;1.57;0.90;;;6.10;99.90;;;;;;5109989;27;20505;-78
2023/01/10 04:26:48;;;;;;;1.10;1.00;;;6.00;99.90;;;;;;5106519;27;20503;-73
2023/01/10 04:29:16;;;;;;;1.10;1.00;;;6.00;99.90;;;;;;5105408;27;20817;-77
2023/01/10 04:31:44;;;;;;;0.90;0.90;;;6.00;1.00;;;;;;5104110;27;20467;-73
2023/01/10 04:34:12;;;;;;;0.87;0.87;;;6.00;99.90;;;;;;5090790;27;20467;-73
2023/01/10 04:36:41;;;;;;;1.10;1.10;;;6.00;1.00;;;;;;5109077;27;20472;-76
2023/01/10 04:39:09;;;;;;;1.93;0.90;;;5.80;99.90;;;;;;5108900;27;20999;-73
2023/01/10 04:41:37;;;;;;;0.87;0.87;;;6.00;99.90;;;;;;5082624;28;20997;-77
2023/01/10 04:44:07;;;;;;;0.90;0.90;;;6.00;99.90;;;;;;5104129;27;20541;-78
2023/01/10 04:46:36;;;;;;;0.80;0.80;;;6.00;99.90;;;;;;5111375;27;20472;-76
2023/01/10 04:49:04;;;;;;;0.90;0.90;;;6.00;99.90;;;;;;5115137;27;20476;-78
2023/01/10 04:51:33;;;;;;;0.90;0.90;;;6.00;99.90;;;;;;5111527;27;20447;-76
2023/01/10 04:54:01;;;;;;;2.10;1.40;;;5.90;99.90;;;;;;5111340;27;20465;-77
2023/01/10 04:56:29;;;;;;;1.30;1.20;;;5.90;1.00;;;;;;5104083;27;20502;-74
2023/01/10 04:58:57;;;;;;;0.90;0.90;;;5.90;99.90;;;;;;5107292;27;20979;-74
2023/01/10 05:01:27;;;;;;;1.53;1.17;;;5.90;1.00;;;;;;5099812;27;20459;-73
2023/01/10 05:03:55;;;;;;;1.00;1.00;;;5.90;1.00;;;;;;5106595;27;20457;-75
2023/01/10 05:06:24;;;;;;;2.87;1.00;;;5.90;99.90;;;;;;5107626;27;20533;-75
2023/01/10 05:08:53;;;;;;;1.00;1.00;;;6.00;1.00;;;;;;5110399;27;20468;-76
2023/01/10 05:11:21;;;;;;;1.10;1.10;;;5.90;1.00;;;;;;5099197;27;22377;-74
2023/01/10 05:13:49;;;;;;;1.27;1.27;;;5.90;99.90;;;;;;5102030;27;20449;-76
2023/01/10 05:16:18;;;;;;;6.60;1.30;;;5.90;99.90;;;;;;5110706;27;20574;-80
2023/01/10 05:18:48;;;;;;;2.13;2.03;;;5.90;94.90;;;;;;5109813;27;20443;-74
2023/01/10 05:21:16;;;;;;;1.30;1.20;;;6.00;99.90;;;;;;5103247;27;20454;-76
2023/01/10 05:23:44;;;;;;;1.33;1.13;;;6.00;99.90;;;;;;5109583;27;20459;-77
2023/01/10 05:26:14;;;;;;;2.60;1.40;;;5.90;99.90;;;;;;5092639;28;20534;-77
2023/01/10 05:28:43;;;;;;;2.77;1.30;;;5.90;17.70;;;;;;5107753;27;20461;-76
2023/01/10 05:31:14;;;;;;;2.07;1.50;;;6.10;99.90;;;;;;5107207;27;20458;-75
2023/01/10 05:33:45;;;;;;;6.70;1.20;;;6.10;1.00;;;;;;5107072;28;20894;-76
2023/01/10 05:36:15;;;;;;;3.07;2.33;;;5.90;1.00;;;;;;5108268;28;20514;-75
2023/01/10 05:38:44;;;;;;;2.10;1.43;;;6.00;99.90;;;;;;5098812;28;21017;-78
2023/01/10 05:41:12;;;;;;;5.33;2.50;;;6.10;1.00;;;;;;5098207;28;20465;-74
2023/01/10 05:43:40;;;;;;;5.90;2.50;;;6.00;1.00;;;;;;5091780;28;20558;-75
2023/01/10 05:46:09;;;;;;;3.93;1.67;;;6.00;99.90;;;;;;5107036;28;20525;-78
2023/01/10 05:48:39;;;;;;;4.10;1.87;;;6.10;1.00;;;;;;5112353;28;20482;-75
2023/01/10 05:51:08;;;;;;;7.93;2.03;;;6.10;99.90;;;;;;5113408;28;20461;-74
2023/01/10 05:53:37;;;;;;;5.03;1.77;;;6.00;99.90;;;;;;5102898;28;20449;-77
2023/01/10 05:56:07;;;;;;;1.70;1.60;;;6.00;99.90;;;;;;5106882;28;20566;-77
2023/01/10 05:58:35;;;;;;;4.63;2.60;;;6.10;1.00;;;;;;5109218;28;20541;-79
2023/01/10 06:01:03;;;;;;;7.07;2.70;;;6.10;99.90;;;;;;5111385;28;20453;-78
2023/01/10 06:03:31;;;;;;;2.27;2.07;;;6.00;1.00;;;;;;5102307;28;20490;-74
2023/01/10 06:05:59;;;;;;;2.80;1.87;;;6.10;1.00;;;;;;5109021;28;20476;-76
2023/01/10 06:08:27;;;;;;;2.73;1.80;;;6.00;12.90;;;;;;5106324;28;20473;-76
2023/01/10 06:10:57;;;;;;;3.03;2.10;;;6.10;50.40;;;;;;5108052;28;20454;-76
2023/01/10 06:13:25;;;;;;;3.77;2.43;;;6.10;99.90;;;;;;5110479;28;20454;-74
2023/01/10 06:15:53;;;;;;;5.37;2.17;;;6.10;99.90;;;;;;5113451;28;21000;-75
2023/01/10 06:18:21;;;;;;;4.40;2.17;;;6.10;99.90;;;;;;5088744;27;20463;-79
2023/01/10 06:20:49;;;;;;;4.33;2.53;;;5.80;99.90;;;;;;5107592;27;20451;-74
2023/01/10 06:23:17;;;;;;;1.60;1.50;;;5.90;1.00;;;;;;5111494;27;20539;-74
2023/01/10 06:25:46;;;;;;;3.83;1.60;;;5.90;99.90;;;;;;5113886;27;20995;-79
2023/01/10 06:28:15;;;;;;;7.00;4.43;;;5.80;99.90;;;;;;5116225;27;21214;-74
2023/01/10 06:30:43;;;;;;;5.27;2.40;;;5.90;99.90;;;;;;5112639;27;20487;-77
2023/01/10 06:33:12;;;;;;;5.13;1.73;;;5.90;99.90;;;;;;5105872;27;20469;-77
2023/01/10 06:35:40;;;;;;;3.50;1.87;;;5.90;1.00;;;;;;5109189;27;20513;-75
2023/01/10 06:38:08;;;;;;;2.93;1.50;;;5.90;99.90;;;;;;5109577;27;20682;-74
2023/01/10 06:40:36;;;;;;;3.07;1.60;;;5.90;99.90;;;;;;5114003;27;20452;-77
2023/01/10 06:43:05;;;;;;;8.97;2.47;;;6.00;99.90;;;;;;5084312;27;20820;-75
2023/01/10 06:45:34;;;;;;;2.77;1.70;;;6.00;99.90;;;;;;5103383;27;20843;-74
2023/01/10 06:48:03;;;;;;;4.33;2.10;;;6.00;99.90;;;;;;5107095;27;20457;-74
2023/01/10 06:50:32;;;;;;;3.20;1.40;;;5.90;99.90;;;;;;5106569;27;20533;-75
2023/01/10 06:53:01;;;;;;;7.93;2.03;;;6.00;99.90;;;;;;5084434;27;20486;-74
2023/01/10 06:55:30;;;;;;;5.20;1.93;;;5.90;1.00;;;;;;5111001;27;20469;-77
2023/01/10 06:58:00;;;;;;;3.63;1.50;;;5.90;1.00;;;;;;5109914;27;20461;-76
2023/01/10 07:00:29;;;;;;;4.17;1.83;;;6.00;99.90;;;;;;5103568;27;20544;-79
2023/01/10 07:03:00;;;;;;;3.90;1.77;;;5.90;1.00;;;;;;5103508;27;20538;-76
2023/01/10 07:05:29;;;;;;;6.90;2.73;;;5.90;1.00;;;;;;5098516;27;20570;-74
2023/01/10 07:08:00;;;;;;;2.23;1.70;;;5.90;1.00;;;;;;5113242;27;20477;-76
2023/01/10 07:10:28;;;;;;;7.23;1.60;;;6.00;1.00;;;;;;5100987;27;20487;-74
2023/01/10 07:12:57;;;;;;;5.90;1.73;;;6.10;25.10;;;;;;5110435;27;20453;-76
2023/01/10 07:15:25;;;;;;;3.20;1.60;;;6.10;99.90;;;;;;5109289;27;20459;-75
2023/01/10 07:17:56;;;;;;;2.93;1.80;;;6.20;1.00;;;;;;5112694;27;20452;-74
2023/01/10 07:20:25;;;;;;;4.23;1.50;;;6.20;1.00;;;;;;5111897;27;20441;-76
2023/01/10 07:22:55;;;;;;;3.50;1.30;;;6.30;1.00;;;;;;5117203;27;20446;-78
2023/01/10 07:25:23;;;;;;;3.50;1.43;;;6.40;99.90;;;;;;5116741;27;20444;-76
2023/01/10 07:27:54;;;;;;;5.60;1.70;;;6.20;1.00;;;;;;5117961;27;21036;-79
2023/01/10 07:30:22;;;;;;;2.60;1.40;;;6.10;1.00;;;;;;5116183;27;20553;-77
2023/01/10 07:32:56;;;;;;;2.87;1.40;;;6.20;99.90;;;;;;5117735;27;20460;-75
2023/01/10 07:35:26;;;;;;;3.10;1.40;;;6.20;99.90;;;;;;5117337;27;20960;-74
2023/01/10 07:37:54;;;;;;;3.03;1.20;;;6.10;99.90;;;;;;5118480;27;20482;-78
2023/01/10 07:40:22;;;;;;;1.83;1.37;;;6.10;1.00;;;;;;5114685;27;20472;-75
2023/01/10 07:42:50;;;;;;;1.63;1.40;;;6.20;99.90;;;;;;5112391;27;20961;-76
2023/01/10 07:45:18;;;;;;;3.83;1.87;;;6.20;84.70;;;;;;5116311;27;20455;-74
2023/01/10 07:47:46;;;;;;;5.83;2.90;;;6.10;99.90;;;;;;5121415;27;20497;-74
2023/01/10 07:50:16;;;;;;;1.50;1.40;;;6.00;99.90;;;;;;5114451;27;20483;-77
2023/01/10 07:52:46;;;;;;;9.13;1.57;;;6.20;99.90;;;;;;5113057;27;20445;-74
2023/01/10 07:55:14;;;;;;;2.50;1.30;;;6.20;99.90;;;;;;5112763;27;20498;-77
2023/01/10 07:57:42;;;;;;;3.83;1.77;;;6.20;1.00;;;;;;5118192;27;20509;-75
2023/01/10 08:00:12;;;;;;;8.60;1.87;;;6.10;99.90;;;;;;5114766;27;20456;-78
2023/01/10 08:02:40;;;;;;;3.97;2.30;;;6.20;1.00;;;;;;5103209;27;20537;-74
2023/01/10 08:05:09;;;;;;;1.70;1.60;;;6.30;1.00;;;;;;5115414;27;20492;-75
2023/01/10 08:07:37;;;;;;;1.70;1.60;;;6.20;1.00;;;;;;5092847;27;20482;-76
2023/01/10 08:10:08;;;;;;;3.60;1.90;;;6.30;1.00;;;;;;5111020;27;20493;-75
2023/01/10 08:12:36;;;;;;;3.83;1.90;;;6.10;1.00;;;;;;5119166;27;20518;-77
2023/01/10 08:15:05;;;;;;;3.50;1.50;;;6.20;1.00;;;;;;5116632;27;20464;-75
2023/01/10 08:17:34;;;;;;;3.67;1.80;;;6.20;99.90;;;;;;5094035;27;20521;-76
2023/01/10 08:20:02;;;;;;;2.33;1.60;;;6.20;99.90;;;;;;5115642;27;20954;-76
2023/01/10 08:22:30;;;;;;;3.70;2.53;;;6.20;1.00;;;;;;5109528;27;21019;-75
2023/01/10 08:24:58;;;;;;;3.07;1.47;;;6.20;99.90;;;;;;5117949;27;20458;-74
2023/01/10 08:27:28;;;;;;;2.80;2.00;;;6.30;15.70;;;;;;5118319;27;20484;-76
2023/01/10 08:29:56;;;;;;;3.00;1.93;;;6.40;1.00;;;;;;5119727;27;20472;-77
2023/01/10 08:32:24;;;;;;;7.30;2.10;;;6.40;1.00;;;;;;5119888;27;20441;-75
2023/01/10 08:34:52;;;;;;;3.40;2.30;;;6.30;1.00;;;;;;5121397;27;20461;-76
2023/01/10 08:37:20;;;;;;;3.10;1.60;;;6.30;99.90;;;;;;5119228;27;20530;-76
2023/01/10 08:39:49;;;;;;;6.67;2.17;;;6.40;1.00;;;;;;5109487;27;20453;-77
2023/01/10 08:42:17;;;;;;;4.17;2.30;;;6.40;1.00;;;;;;5116051;27;20454;-79
2023/01/10 08:44:47;;;;;;;3.73;1.80;;;6.30;99.90;;;;;;5114286;27;20456;-74
2023/01/10 08:47:15;;;;;;;2.00;1.47;;;6.50;1.00;;;;;;5099385;28;20475;-79
2023/01/10 08:49:45;;;;;;;4.53;1.90;;;6.50;1.00;;;;;;5091326;27;20470;-75
2023/01/10 08:52:14;;;;;;;6.37;1.90;;;6.50;99.90;;;;;;5098913;27;21165;-76
2023/01/10 08:54:42;;;;;;;4.43;1.77;;;6.40;20.90;;;;;;5122323;27;20478;-74
2023/01/10 08:57:10;;;;;;;4.23;2.00;;;6.30;1.00;;;;;;5118118;27;20472;-75
2023/01/10 08:59:38;;;;;;;4.93;2.10;;;6.30;97.60;;;;;;5114942;27;20441;-75
2023/01/10 09:02:12;;;;;;;3.27;2.07;;;6.30;94.10;;;;;;5115521;27;20441;-74
2023/01/10 09:04:40;;;;;;;3.37;1.67;;;6.30;1.00;;;;;;5102811;27;20449;-75
2023/01/10 09:07:08;;;;;;;9.73;2.63;;;6.20;99.90;;;;;;5115378;27;20481;-78
2023/01/10 09:09:37;;;;;;;4.30;2.40;;;6.30;99.90;;;;;;5121809;27;21014;-74
2023/01/10 09:12:53;;;;;;;4.80;1.60;;;6.10;99.90;;;;;;5123526;27;20448;-76
2023/01/10 09:14:54;;;;;;;5.53;1.80;;;5.90;99.90;;;;;;5118469;27;20448;-74
2023/01/10 09:17:24;;;;;;;3.27;1.97;;;6.10;99.90;;;;;;5118763;27;20487;-75
2023/01/10 09:19:52;;;;;;;1.60;1.50;;;5.90;1.00;;;;;;5118572;27;20442;-74
2023/01/10 09:22:20;;;;;;;4.30;1.80;;;5.90;1.00;;;;;;5117036;27;20451;-75
2023/01/10 09:24:48;;;;;;;5.23;2.10;;;6.20;1.00;;;;;;5115538;27;20460;-74
2023/01/10 09:27:16;;;;;;;1.70;1.60;;;6.20;1.00;;;;;;5113997;27;20503;-75
2023/01/10 09:29:44;;;;;;;2.20;1.93;;;6.10;1.00;;;;;;5115617;27;20517;-75
2023/01/10 09:32:12;;;;;;;7.60;2.63;;;6.30;1.00;;;;;;5118723;27;20453;-74
2023/01/10 09:34:42;;;;;;;4.10;2.00;;;6.20;99.90;;;;;;5123350;27;20862;-74
2023/01/10 09:37:10;;;;;;;2.40;1.60;;;6.10;1.00;;;;;;5122108;27;20492;-74
2023/01/10 09:39:38;;;;;;;4.30;1.90;;;5.90;99.90;;;;;;5111548;28;20457;-78
2023/01/10 09:42:20;;;;;;;7.50;2.30;;;6.20;99.90;;;;;;5103872;28;21230;-77
2023/01/10 09:44:58;;;;;;;3.73;2.20;;;6.20;1.00;;;;;;5113648;28;20463;-80
2023/01/10 09:47:39;;;;;;;3.53;1.93;;;6.10;35.50;;;;;;5103408;28;20472;-76
2023/01/10 09:50:19;;;;;;;3.83;1.93;;;6.20;99.90;;;;;;5104389;28;20480;-78
2023/01/10 09:52:51;;;;;;;3.13;1.80;;;6.10;99.90;;;;;;5115985;27;20455;-76
2023/01/10 09:55:25;;;;;;;4.50;1.93;;;6.20;99.90;;;;;;5089811;28;20995;-76
2023/01/10 09:57:55;;;;;;;3.90;1.70;;;6.10;99.90;;;;;;5101388;27;20476;-74
2023/01/10 10:00:34;;;;;;;3.10;1.90;;;6.20;1.00;;;;;;5105132;27;21014;-80
2023/01/10 10:03:06;;;;;;;6.43;2.20;;;6.20;99.90;;;;;;5111728;27;20459;-73
2023/01/10 10:05:36;;;;;;;3.07;1.73;;;6.50;99.90;;;;;;5108738;27;20449;-74
2023/01/10 10:08:10;;;;;;;2.90;1.60;;;6.60;99.90;;;;;;5116804;27;20473;-77
2023/01/10 10:10:41;;;;;;;4.80;2.00;;;6.80;99.90;;;;;;5112723;27;20486;-74
2023/01/10 10:13:20;;;;;;;4.63;2.30;;;7.10;99.90;;;;;;5110401;27;20450;-77
2023/01/10 10:16:03;;;;;;;4.57;1.50;;;7.40;99.90;;;;;;5114242;27;21027;-75
2023/01/10 10:18:44;;;;;;;3.97;1.67;;;7.40;1.00;;;;;;5118213;27;21052;-77
2023/01/10 10:21:23;;;;;;;1.70;1.40;;;7.40;99.90;;;;;;5107440;27;20510;-75
2023/01/10 10:24:11;;;;;;;3.30;1.50;;;7.20;99.90;;;;;;5118107;27;20441;-79
2023/01/10 10:26:50;;;;;;;2.50;1.50;;;7.20;99.90;;;;;;5114356;27;20475;-74
2023/01/10 10:29:46;;;;;;;6.10;1.50;;;7.30;1.00;;;;;;5112073;27;20487;-75
2023/01/10 10:32:36;;;;;;;1.63;1.53;;;7.00;64.30;;;;;;5088858;27;20494;-78
2023/01/10 10:35:12;;;;;;;5.53;1.60;;;7.00;1.00;;;;;;5109244;27;20523;-80
2023/01/10 10:37:45;;;;;;;2.73;1.50;;;7.00;1.00;;;;;;5113821;27;21315;-77
2023/01/10 10:40:18;;;;;;;4.47;1.57;;;6.80;1.00;;;;;;5116862;27;20474;-76
2023/01/10 10:42:49;;;;;;;2.53;1.37;;;6.70;43.00;;;;;;5119524;27;20443;-75
2023/01/10 10:45:20;;;;;;;3.73;1.90;;;6.70;1.00;;;;;;5120063;27;20862;-74
2023/01/10 10:47:59;;;;;;;2.10;1.80;;;6.80;99.90;;;;;;5123034;27;20470;-75
2023/01/10 10:50:32;;;;;;;2.50;1.40;;;7.00;1.00;;;;;;5108878;27;20491;-74
2023/01/10 10:53:04;;;;;;;6.07;1.47;;;7.00;1.00;;;;;;5109180;27;20444;-73
2023/01/10 10:55:35;;;;;;;2.60;1.53;;;7.30;99.90;;;;;;5114692;27;20446;-74
2023/01/10 10:58:04;;;;;;;3.40;1.87;;;7.20;99.90;;;;;;5113995;27;20543;-76
2023/01/10 11:00:33;;;;;;;2.80;1.30;;;7.30;99.90;;;;;;5116490;27;20462;-78
2023/01/10 11:03:06;;;;;;;2.70;1.57;;;7.10;42.70;;;;;;5122725;27;20455;-75
2023/01/10 11:05:39;;;;;;;2.50;1.27;;;6.80;99.90;;;;;;5102272;27;20481;-74
2023/01/10 11:08:11;;;;;;;3.47;1.60;;;7.00;1.00;;;;;;5115529;27;20485;-75
2023/01/10 11:10:40;;;;;;;2.20;1.30;;;7.00;99.90;;;;;;5123634;27;20469;-76
2023/01/10 11:13:17;;;;;;;1.83;1.47;;;7.10;99.90;;;;;;5102741;27;20858;-77
2023/01/10 11:15:47;;;;;;;3.60;1.40;;;6.90;99.90;;;;;;5116566;27;20440;-75
2023/01/10 11:18:19;;;;;;;3.17;1.70;;;7.10;99.90;;;;;;5096672;27;20452;-76
2023/01/10 11:20:49;;;;;;;2.47;1.50;;;7.20;99.90;;;;;;5116411;27;20473;-78
2023/01/10 11:23:27;;;;;;;4.60;1.80;;;7.00;99.90;;;;;;5099156;27;20458;-80
2023/01/10 11:25:57;;;;;;;3.53;1.43;;;6.90;99.90;;;;;;5119957;27;20501;-78
2023/01/10 11:28:31;;;;;;;5.47;1.80;;;7.10;99.90;;;;;;5119733;27;20464;-73
2023/01/10 11:31:00;;;;;;;3.13;1.70;;;7.30;99.90;;;;;;5117148;27;20520;-75
2023/01/10 11:33:31;;;;;;;4.60;1.50;;;7.40;28.80;;;;;;5114864;27;20446;-80
2023/01/10 11:36:02;;;;;;;1.50;1.40;;;7.30;2.70;;;;;;5114585;27;20455;-75
2023/01/10 11:38:33;;;;;;;1.80;1.37;;;7.40;34.90;;;;;;5116537;27;20465;-75
2023/01/10 11:41:03;;;;;;;1.50;1.40;;;7.50;1.00;;;;;;5097792;27;20979;-75
2023/01/10 11:43:35;;;;;;;3.57;1.60;;;7.40;1.00;;;;;;5083378;27;20473;-75
2023/01/10 11:46:06;;;;;;;2.80;1.90;;;7.60;1.00;;;;;;5117085;27;20474;-77
2023/01/10 11:48:45;;;;;;;1.53;1.43;;;7.70;1.00;;;;;;5116397;27;20443;-75
2023/01/10 11:51:37;;;;;;;2.17;1.80;;;8.00;99.90;;;;;;5113232;27;20476;-81
2023/01/10 11:54:11;;;;;;;4.43;1.80;;;8.10;99.90;;;;;;5116411;27;20467;-79
2023/01/10 11:56:42;;;;;;;2.27;1.67;;;8.20;99.90;;;;;;5101882;27;20482;-79
2023/01/10 11:59:14;;;;;;;5.63;1.57;;;8.40;99.90;;;;;;5119894;27;21254;-78
2023/01/10 12:01:45;;;;;;;3.57;1.40;;;8.50;99.90;;;;;;5083968;27;20956;-78
2023/01/10 12:04:19;;;;;;;3.73;1.50;;;8.80;92.80;;;;;;5110262;27;20647;-80
2023/01/10 12:06:52;;;;;;;1.97;1.30;;;8.80;87.40;;;;;;5109848;27;20985;-81
2023/01/10 12:09:41;;;;;;;5.00;1.97;;;8.80;1.00;;;;;;5109234;27;20478;-80
2023/01/10 12:12:21;;;;;;;3.43;2.50;;;8.70;1.00;;;;;;5112595;27;20472;-80
2023/01/10 12:14:50;;;;;;;3.20;1.80;;;8.80;1.00;;;;;;5115602;27;20432;-78
2023/01/10 12:17:23;;;;;;;2.10;1.70;;;8.80;1.00;;;;;;5113321;27;20526;-81
2023/01/10 12:19:52;;;;;;;2.20;1.30;;;8.90;1.00;;;;;;5110013;27;20445;-76
2023/01/10 12:22:25;;;;;;;2.83;1.30;;;8.70;1.00;;;;;;5101602;27;20455;-76
2023/01/10 12:24:56;;;;;;;3.23;1.37;;;8.60;1.00;;;;;;5117513;27;20966;-76
2023/01/10 12:27:27;;;;;;;1.30;1.20;;;8.50;1.00;;;;;;5118507;27;20549;-76
2023/01/10 12:30:04;;;;;;;3.07;1.53;;;8.30;1.00;;;;;;5096927;28;20454;-75
2023/01/10 12:32:41;;;;;;;3.63;1.70;;;8.10;1.00;;;;;;5119867;27;20586;-75
2023/01/10 12:35:17;;;;;;;3.43;1.53;;;8.10;1.00;;;;;;5119759;27;20452;-75
2023/01/10 12:37:48;;;;;;;4.03;1.90;;;7.90;1.00;;;;;;5119366;27;21027;-75
2023/01/10 12:40:30;;;;;;;1.80;1.30;;;7.90;1.00;;;;;;5107939;27;20962;-75
2023/01/10 12:45:53;;;;;;;1.30;1.20;;;7.80;1.00;;;;;;5113743;27;21005;-75
2023/01/10 12:48:30;;;;;;;1.93;1.20;;;7.90;1.00;;;;;;5103210;27;20477;-75
2023/01/10 12:51:04;;;;;;;1.77;1.33;;;7.90;1.00;;;;;;5114309;27;20592;-77
2023/01/10 12:53:37;;;;;;;5.50;1.53;;;7.80;1.00;;;;;;5110238;27;20474;-77
2023/01/10 12:56:12;;;;;;;3.23;1.50;;;7.80;99.90;;;;;;5088026;27;20470;-79
2023/01/10 12:58:43;;;;;;;2.73;1.53;;;7.80;99.90;;;;;;5113206;27;20447;-74
2023/01/10 13:01:15;;;;;;;1.43;1.33;;;7.90;99.90;;;;;;5106473;27;20470;-75
2023/01/10 13:03:45;;;;;;;2.57;1.20;;;7.90;99.90;;;;;;5117763;27;20461;-74
2023/01/10 13:06:21;;;;;;;1.43;1.27;;;7.90;99.90;;;;;;5105046;27;20471;-80
2023/01/10 13:08:50;;;;;;;3.47;1.20;;;7.90;99.90;;;;;;5105151;27;20454;-77
2023/01/10 13:11:24;;;;;;;1.83;1.63;;;7.80;99.90;;;;;;5103585;27;20467;-78
2023/01/10 13:13:56;;;;;;;3.17;1.70;;;7.70;99.90;;;;;;5106004;27;20451;-74
2023/01/10 13:16:33;;;;;;;3.60;1.17;;;7.50;99.90;;;;;;5103940;28;20508;-76
2023/01/10 13:19:22;;;;;;;1.97;1.30;;;7.60;99.90;;;;;;5082657;28;20461;-75
2023/01/10 13:21:51;;;;;;;1.10;1.00;;;7.60;99.90;;;;;;5116273;27;20449;-77
2023/01/10 13:24:22;;;;;;;2.00;1.33;;;7.70;99.90;;;;;;5104627;27;20459;-79
2023/01/10 13:26:55;;;;;;;4.90;1.50;;;7.60;99.90;;;;;;5113034;27;21055;-75
2023/01/10 13:29:25;;;;;;;4.50;1.33;;;7.80;99.90;;;;;;5113991;27;20459;-75
2023/01/10 13:31:56;;;;;;;2.30;1.30;;;7.90;99.90;;;;;;5108073;27;20463;-77
2023/01/10 13:34:32;;;;;;;2.43;1.50;;;7.90;99.90;;;;;;5113677;27;20447;-75
2023/01/10 13:37:03;;;;;;;9.93;1.90;;;8.10;99.90;;;;;;5106032;28;20477;-77
2023/01/10 13:39:35;;;;;;;2.90;1.10;;;8.00;99.90;;;;;;5086084;28;20507;-76